createdAt,value
2023-01-22T00:00:13.167Z,64.40
2023-01-22T00:02:40.867Z,60.63
2023-01-22T00:05:13.429Z,58.77
2023-01-22T00:07:43.169Z,56.67
2023-01-22T00:10:13.148Z,50.20
2023-01-22T00:12:44.139Z,66.83
2023-01-22T00:15:12.858Z,66.40
2023-01-22T00:17:45.566Z,32.77
2023-01-22T00:20:13.626Z,52.43
2023-01-22T00:22:43.676Z,40.80
2023-01-22T00:25:18.321Z,45.40
2023-01-22T00:27:48.000Z,38.33
2023-01-22T00:30:17.539Z,97.03
2023-01-22T00:32:49.104Z,70.97
2023-01-22T00:35:16.381Z,41.67
2023-01-22T00:37:47.011Z,36.30
2023-01-22T00:40:14.902Z,40.10
2023-01-22T00:42:42.364Z,37.60
2023-01-22T00:45:12.136Z,33.50
2023-01-22T00:47:41.172Z,35.53
2023-01-22T00:50:09.665Z,39.80
2023-01-22T00:52:39.961Z,35.67
2023-01-22T00:55:12.639Z,29.70
2023-01-22T00:57:40.024Z,64.03
2023-01-22T01:00:11.129Z,37.83
2023-01-22T01:03:00.681Z,67.20
2023-01-22T01:05:28.971Z,29.47
2023-01-22T01:07:58.645Z,32.67
2023-01-22T01:10:25.709Z,35.50
2023-01-22T01:12:52.821Z,48.43
2023-01-22T01:15:19.924Z,50.00
2023-01-22T01:17:49.733Z,37.60
2023-01-22T01:20:17.217Z,53.13
2023-01-22T01:22:44.523Z,35.80
2023-01-22T01:25:14.512Z,36.50
2023-01-22T01:27:41.579Z,52.47
2023-01-22T01:30:10.145Z,39.73
2023-01-22T01:32:37.147Z,55.97
2023-01-22T01:35:06.368Z,48.33
2023-01-22T01:37:33.181Z,43.00
2023-01-22T01:40:00.031Z,37.53
2023-01-22T01:42:31.858Z,51.80
2023-01-22T01:45:32.539Z,52.47
2023-01-22T01:48:11.849Z,42.23
2023-01-22T01:50:42.564Z,47.93
2023-01-22T01:53:10.113Z,48.93
2023-01-22T01:55:40.735Z,51.77
2023-01-22T01:58:13.711Z,45.90
2023-01-22T02:00:43.890Z,60.35
2023-01-22T02:03:12.242Z,56.13
2023-01-22T02:05:40.668Z,63.57
2023-01-22T02:08:09.494Z,54.30
2023-01-22T02:10:36.724Z,61.97
2023-01-22T02:13:07.736Z,59.67
2023-01-22T02:15:35.904Z,59.37
2023-01-22T02:18:02.869Z,58.43
2023-01-22T02:20:35.142Z,65.40
2023-01-22T02:23:02.043Z,54.73
2023-01-22T02:25:28.995Z,63.33
2023-01-22T02:27:55.952Z,51.40
2023-01-22T02:30:24.183Z,56.20
2023-01-22T02:32:51.383Z,62.07
2023-01-22T02:35:18.414Z,56.87
2023-01-22T02:37:46.822Z,53.37
2023-01-22T02:40:14.196Z,76.67
2023-01-22T02:42:42.004Z,58.60
2023-01-22T02:45:09.967Z,65.70
2023-01-22T02:47:37.947Z,79.73
2023-01-22T02:50:05.766Z,67.93
2023-01-22T02:52:33.079Z,68.73
2023-01-22T02:55:01.455Z,66.53
2023-01-22T02:57:30.430Z,65.17
2023-01-22T02:59:57.454Z,81.20
2023-01-22T03:02:24.690Z,71.33
2023-01-22T03:04:52.386Z,74.03
2023-01-22T03:07:23.502Z,74.90
2023-01-22T03:09:50.478Z,63.80
2023-01-22T03:12:18.784Z,73.70
2023-01-22T03:15:04.211Z,78.03
2023-01-22T03:17:49.259Z,55.80
2023-01-22T03:20:34.607Z,58.30
2023-01-22T03:23:02.835Z,50.93
2023-01-22T03:25:29.739Z,80.13
2023-01-22T03:28:16.640Z,69.03
2023-01-22T03:30:43.500Z,91.33
2023-01-22T03:33:10.468Z,95.03
2023-01-22T03:35:37.394Z,67.67
2023-01-22T03:38:04.400Z,68.67
2023-01-22T03:40:31.471Z,74.60
2023-01-22T03:42:59.825Z,71.93
2023-01-22T03:45:26.795Z,73.93
2023-01-22T03:47:54.350Z,58.67
2023-01-22T03:50:21.318Z,72.17
2023-01-22T03:52:48.210Z,64.97
2023-01-22T03:55:17.940Z,56.17
2023-01-22T03:57:47.297Z,61.83
2023-01-22T04:00:18.773Z,81.13
2023-01-22T04:02:45.897Z,63.40
2023-01-22T04:05:13.338Z,55.80
2023-01-22T04:07:40.295Z,63.23
2023-01-22T04:10:08.780Z,74.33
2023-01-22T04:12:35.747Z,53.87
2023-01-22T04:15:02.714Z,45.83
2023-01-22T04:17:30.904Z,71.77
2023-01-22T04:19:59.498Z,40.37
2023-01-22T04:22:26.433Z,44.50
2023-01-22T04:24:53.713Z,41.20
2023-01-22T04:27:23.091Z,49.73
2023-01-22T04:29:50.089Z,45.37
2023-01-22T04:32:16.976Z,43.80
2023-01-22T04:34:46.963Z,47.00
2023-01-22T04:37:13.961Z,39.00
2023-01-22T04:39:40.944Z,43.17
2023-01-22T04:42:10.707Z,49.60
2023-01-22T04:44:37.567Z,46.57
2023-01-22T04:47:06.578Z,54.30
2023-01-22T04:49:33.512Z,57.37
2023-01-22T04:52:05.037Z,44.53
2023-01-22T04:54:32.146Z,41.00
2023-01-22T04:56:59.096Z,45.87
2023-01-22T04:59:26.041Z,39.10
2023-01-22T05:01:53.109Z,40.23
2023-01-22T05:04:23.854Z,44.20
2023-01-22T05:06:50.968Z,44.50
2023-01-22T05:09:19.656Z,47.67
2023-01-22T05:11:46.697Z,41.33
2023-01-22T05:14:13.760Z,35.37
2023-01-22T05:16:40.793Z,42.73
2023-01-22T05:19:07.851Z,32.30
2023-01-22T05:21:34.931Z,38.80
2023-01-22T05:24:01.908Z,32.23
2023-01-22T05:26:30.431Z,38.90
2023-01-22T05:28:57.441Z,37.07
2023-01-22T05:31:24.431Z,31.37
2023-01-22T05:33:51.664Z,33.80
2023-01-22T05:36:18.542Z,30.03
2023-01-22T05:38:46.715Z,32.53
2023-01-22T05:41:13.759Z,29.73
2023-01-22T05:43:42.202Z,31.93
2023-01-22T05:46:09.193Z,32.53
2023-01-22T05:48:36.274Z,26.77
2023-01-22T05:51:04.779Z,29.60
2023-01-22T05:53:31.723Z,30.40
2023-01-22T05:56:00.853Z,33.67
2023-01-22T05:58:27.895Z,30.93
2023-01-22T06:00:56.376Z,31.60
2023-01-22T06:03:23.674Z,25.00
2023-01-22T06:05:57.669Z,33.87
2023-01-22T06:10:51.279Z,23.70
2023-01-22T06:13:18.173Z,25.63
2023-01-22T06:15:45.077Z,26.70
2023-01-22T06:18:13.401Z,29.43
2023-01-22T06:20:40.304Z,18.63
2023-01-22T06:23:07.682Z,19.90
2023-01-22T06:25:36.033Z,25.33
2023-01-22T06:28:03.101Z,21.27
2023-01-22T06:30:30.219Z,22.87
2023-01-22T06:32:57.154Z,25.03
2023-01-22T06:35:25.538Z,24.10
2023-01-22T06:37:52.584Z,30.87
2023-01-22T06:40:20.165Z,29.20
2023-01-22T06:42:47.282Z,24.20
2023-01-22T06:45:14.371Z,22.20
2023-01-22T06:47:43.781Z,18.27
2023-01-22T06:50:11.760Z,19.27
2023-01-22T06:52:40.037Z,18.83
2023-01-22T06:55:07.528Z,19.40
2023-01-22T06:57:34.390Z,18.17
2023-01-22T07:00:01.332Z,20.57
2023-01-22T07:02:28.246Z,17.73
2023-01-22T07:04:55.212Z,19.50
2023-01-22T07:07:22.011Z,17.03
2023-01-22T07:09:50.292Z,16.57
2023-01-22T07:12:17.165Z,17.77
2023-01-22T07:14:43.998Z,21.10
2023-01-22T07:17:10.947Z,17.63
2023-01-22T07:19:37.852Z,19.43
2023-01-22T07:22:04.626Z,19.90
2023-01-22T07:24:31.556Z,20.37
2023-01-22T07:27:01.575Z,18.27
2023-01-22T07:29:28.530Z,25.90
2023-01-22T07:31:55.505Z,18.70
2023-01-22T07:34:22.717Z,16.83
2023-01-22T07:36:49.588Z,20.20
2023-01-22T07:39:16.600Z,17.63
2023-01-22T07:41:43.559Z,14.00
2023-01-22T07:44:12.781Z,18.73
2023-01-22T07:46:39.869Z,17.13
2023-01-22T07:49:07.003Z,18.83
2023-01-22T07:51:34.062Z,16.37
2023-01-22T07:54:00.982Z,14.70
2023-01-22T07:56:27.848Z,18.93
2023-01-22T07:58:54.694Z,16.87
2023-01-22T08:01:23.007Z,17.43
2023-01-22T08:03:49.836Z,15.77
2023-01-22T08:06:23.703Z,16.03
2023-01-22T08:11:31.410Z,14.33
2023-01-22T08:13:58.204Z,17.17
2023-01-22T08:16:26.683Z,19.43
2023-01-22T08:18:53.878Z,14.70
2023-01-22T08:21:20.724Z,15.97
2023-01-22T08:23:49.326Z,15.00
2023-01-22T08:26:16.407Z,17.30
2023-01-22T08:28:43.345Z,20.47
2023-01-22T08:31:19.171Z,15.13
2023-01-22T08:33:54.893Z,18.53
2023-01-22T08:36:21.993Z,13.77
2023-01-22T08:38:48.892Z,16.27
2023-01-22T08:41:16.082Z,14.53
2023-01-22T08:43:42.926Z,17.83
2023-01-22T08:46:09.880Z,20.03
2023-01-22T08:48:36.806Z,18.33
2023-01-22T08:51:05.428Z,16.57
2023-01-22T08:53:32.378Z,15.70
2023-01-22T08:55:59.405Z,18.40
2023-01-22T08:58:27.923Z,21.20
2023-01-22T09:00:57.838Z,18.47
2023-01-22T09:03:24.891Z,18.50
2023-01-22T09:05:51.731Z,15.90
2023-01-22T09:08:20.463Z,16.83
2023-01-22T09:10:47.781Z,13.87
2023-01-22T09:13:14.583Z,17.67
2023-01-22T09:15:41.454Z,16.40
2023-01-22T09:18:08.373Z,20.17
2023-01-22T09:20:35.285Z,17.70
2023-01-22T09:23:02.140Z,14.53
2023-01-22T09:25:30.433Z,20.33
2023-01-22T09:27:59.035Z,12.57
2023-01-22T09:30:26.529Z,14.23
2023-01-22T09:32:53.717Z,11.80
2023-01-22T09:35:20.655Z,13.43
2023-01-22T09:37:47.742Z,12.60
2023-01-22T09:40:24.930Z,15.70
2023-01-22T09:42:57.013Z,11.07
2023-01-22T09:45:26.697Z,18.17
2023-01-22T09:47:58.302Z,11.90
2023-01-22T09:50:28.177Z,10.83
2023-01-22T09:52:57.897Z,10.40
2023-01-22T09:55:36.034Z,11.03
2023-01-22T09:58:09.898Z,13.83
2023-01-22T10:03:12.820Z,10.93
2023-01-22T10:05:43.218Z,9.90
2023-01-22T10:08:13.800Z,10.63
2023-01-22T10:10:41.071Z,11.03
2023-01-22T10:13:16.427Z,9.13
2023-01-22T10:15:43.620Z,9.97
2023-01-22T10:18:24.469Z,10.73
2023-01-22T10:20:52.929Z,9.50
2023-01-22T10:23:22.158Z,9.50
2023-01-22T10:25:49.033Z,8.33
2023-01-22T10:28:24.734Z,9.20
2023-01-22T10:30:58.009Z,9.50
2023-01-22T10:33:27.590Z,16.58
2023-01-22T10:35:56.956Z,11.37
2023-01-22T10:38:27.596Z,9.73
2023-01-22T10:40:59.181Z,11.43
2023-01-22T10:43:35.622Z,14.87
2023-01-22T10:46:17.543Z,10.40
2023-01-22T10:48:44.482Z,8.37
2023-01-22T10:51:15.793Z,8.70
2023-01-22T10:53:48.452Z,8.70
2023-01-22T10:56:26.683Z,10.47
2023-01-22T10:58:57.156Z,8.67
2023-01-22T11:01:28.808Z,10.03
2023-01-22T11:03:55.812Z,8.73
2023-01-22T11:06:26.854Z,9.30
2023-01-22T11:09:00.689Z,12.13
2023-01-22T11:11:32.866Z,9.48
2023-01-22T11:14:05.219Z,14.13
2023-01-22T11:16:35.555Z,17.53
2023-01-22T11:19:07.040Z,10.57
2023-01-22T11:21:37.910Z,18.03
2023-01-22T11:24:12.048Z,10.13
2023-01-22T11:26:59.824Z,13.93
2023-01-22T11:29:43.483Z,10.53
2023-01-22T11:32:29.296Z,10.70
2023-01-22T11:35:05.032Z,13.50
2023-01-22T11:37:46.459Z,11.43
2023-01-22T11:40:26.125Z,11.07
2023-01-22T11:43:18.836Z,13.10
2023-01-22T11:46:09.683Z,11.27
2023-01-22T11:48:52.820Z,9.97
2023-01-22T11:51:28.086Z,12.87
2023-01-22T11:54:06.166Z,9.97
2023-01-22T11:56:57.934Z,9.37
2023-01-22T11:59:40.111Z,10.93
2023-01-22T12:02:28.630Z,12.57
2023-01-22T12:05:11.702Z,9.67
2023-01-22T12:08:02.163Z,11.07
2023-01-22T12:10:56.195Z,8.57
2023-01-22T12:13:43.096Z,12.57
2023-01-22T12:16:21.291Z,10.43
2023-01-22T12:19:29.962Z,9.63
2023-01-22T12:22:04.290Z,10.67
2023-01-22T12:24:37.383Z,8.43
2023-01-22T12:27:10.228Z,8.02
2023-01-22T12:29:43.063Z,7.80
2023-01-22T12:32:12.980Z,10.50
2023-01-22T12:34:48.156Z,9.57
2023-01-22T12:37:18.739Z,9.60
2023-01-22T12:39:55.080Z,11.83
2023-01-22T12:42:28.129Z,11.50
2023-01-22T12:45:05.245Z,13.95
2023-01-22T12:47:40.712Z,10.37
2023-01-22T12:50:19.417Z,12.57
2023-01-22T12:52:57.362Z,11.10
2023-01-22T12:55:30.875Z,11.83
2023-01-22T12:57:58.387Z,13.82
2023-01-22T13:00:36.673Z,10.10
2023-01-22T13:03:30.718Z,10.40
2023-01-22T13:06:01.329Z,9.53
2023-01-22T13:08:40.976Z,9.23
2023-01-22T13:11:09.904Z,10.20
2023-01-22T13:13:46.976Z,13.10
2023-01-22T13:16:32.585Z,9.33
2023-01-22T13:19:00.858Z,19.63
2023-01-22T13:21:31.331Z,12.13
2023-01-22T13:24:01.501Z,8.87
2023-01-22T13:26:29.954Z,9.93
2023-01-22T13:28:59.036Z,12.70
2023-01-22T13:31:26.002Z,8.13
2023-01-22T13:33:57.519Z,16.67
2023-01-22T13:36:25.512Z,12.13
2023-01-22T13:38:55.787Z,11.80
2023-01-22T13:41:31.126Z,9.13
2023-01-22T13:43:58.592Z,11.23
2023-01-22T13:46:28.917Z,8.60
2023-01-22T13:49:05.447Z,11.90
2023-01-22T13:51:34.408Z,11.23
2023-01-22T13:54:04.891Z,16.23
2023-01-22T13:56:31.823Z,11.03
2023-01-22T13:59:07.432Z,8.77
2023-01-22T14:01:37.125Z,12.63
2023-01-22T14:04:06.589Z,8.20
2023-01-22T14:06:44.527Z,8.60
2023-01-22T14:09:13.111Z,12.13
2023-01-22T14:11:41.087Z,12.80
2023-01-22T14:14:18.730Z,11.77
2023-01-22T14:16:46.463Z,7.57
2023-01-22T14:19:14.087Z,11.90
2023-01-22T14:21:41.115Z,10.70
2023-01-22T14:24:08.824Z,9.27
2023-01-22T14:26:37.426Z,16.20
2023-01-22T14:29:04.261Z,9.80
2023-01-22T14:31:31.181Z,9.77
2023-01-22T14:33:58.029Z,14.83
2023-01-22T14:36:25.515Z,12.03
2023-01-22T14:38:53.633Z,13.47
2023-01-22T14:41:20.530Z,11.00
2023-01-22T14:43:48.789Z,14.07
2023-01-22T14:46:15.721Z,12.30
2023-01-22T14:48:42.547Z,13.07
2023-01-22T14:51:10.686Z,10.47
2023-01-22T14:53:38.262Z,13.17
2023-01-22T14:56:05.630Z,9.63
2023-01-22T14:58:32.502Z,11.77
2023-01-22T15:01:00.943Z,8.67
2023-01-22T15:03:29.722Z,9.70
2023-01-22T15:05:56.920Z,20.07
2023-01-22T15:08:24.100Z,17.23
2023-01-22T15:10:50.964Z,10.10
2023-01-22T15:13:17.911Z,13.07
2023-01-22T15:15:44.708Z,11.57
2023-01-22T15:18:13.075Z,12.07
2023-01-22T15:20:39.978Z,14.60
2023-01-22T15:23:06.889Z,10.93
2023-01-22T15:25:33.727Z,12.83
2023-01-22T15:28:00.680Z,12.67
2023-01-22T15:30:27.582Z,11.07
2023-01-22T15:32:54.654Z,12.97
2023-01-22T15:35:22.900Z,10.87
2023-01-22T15:37:49.888Z,14.10
2023-01-22T15:40:17.206Z,11.80
2023-01-22T15:42:44.173Z,10.63
2023-01-22T15:45:11.610Z,13.20
2023-01-22T15:47:38.560Z,12.57
2023-01-22T15:50:06.435Z,11.63
2023-01-22T15:52:34.690Z,11.67
2023-01-22T15:55:01.602Z,12.57
2023-01-22T15:57:28.498Z,12.47
2023-01-22T15:59:55.467Z,14.33
2023-01-22T16:02:22.435Z,13.53
2023-01-22T16:04:49.443Z,13.30
2023-01-22T16:07:16.345Z,15.07
2023-01-22T16:09:44.699Z,14.03
2023-01-22T16:12:11.569Z,18.90
2023-01-22T16:14:38.451Z,12.83
2023-01-22T16:17:05.361Z,11.37
2023-01-22T16:19:32.271Z,14.07
2023-01-22T16:21:59.111Z,14.03
2023-01-22T16:24:26.072Z,11.93
2023-01-22T16:26:54.554Z,17.17
2023-01-22T16:29:21.446Z,13.50
2023-01-22T16:31:48.443Z,15.77
2023-01-22T16:34:17.083Z,16.07
2023-01-22T16:36:45.114Z,13.67
2023-01-22T16:39:17.179Z,19.47
2023-01-22T16:41:47.045Z,15.03
2023-01-22T16:44:17.719Z,18.07
2023-01-22T16:46:47.505Z,21.33
2023-01-22T16:49:17.935Z,14.43
2023-01-22T16:51:46.709Z,29.63
2023-01-22T16:54:20.007Z,14.67
2023-01-22T16:56:47.515Z,15.27
2023-01-22T16:59:16.761Z,15.90
2023-01-22T17:01:44.195Z,13.50
2023-01-22T17:04:11.254Z,14.17
2023-01-22T17:06:40.758Z,14.70
2023-01-22T17:09:12.055Z,13.53
2023-01-22T17:11:38.991Z,16.37
2023-01-22T17:14:07.881Z,13.73
2023-01-22T17:16:36.622Z,20.00
2023-01-22T17:19:04.123Z,19.63
2023-01-22T17:21:31.540Z,15.33
2023-01-22T17:23:58.463Z,13.43
2023-01-22T17:26:25.710Z,17.67
2023-01-22T17:28:53.320Z,14.10
2023-01-22T17:31:22.304Z,16.07
2023-01-22T17:33:55.330Z,16.03
2023-01-22T17:36:24.357Z,16.40
2023-01-22T17:38:52.359Z,14.50
2023-01-22T17:41:21.119Z,14.23
2023-01-22T17:43:52.076Z,17.37
2023-01-22T17:46:20.948Z,14.47
2023-01-22T17:48:51.871Z,20.43
2023-01-22T17:51:20.734Z,12.77
2023-01-22T17:53:49.616Z,13.20
2023-01-22T17:56:18.601Z,12.83
2023-01-22T17:58:47.943Z,14.13
2023-01-22T18:01:15.379Z,12.60
2023-01-22T18:03:43.433Z,16.23
2023-01-22T18:06:12.566Z,12.17
2023-01-22T18:08:40.914Z,13.80
2023-01-22T18:11:10.204Z,15.87
2023-01-22T18:13:38.237Z,14.13
2023-01-22T18:16:06.431Z,17.60
2023-01-22T18:18:33.346Z,16.83
2023-01-22T18:21:00.264Z,16.33
2023-01-22T18:23:28.612Z,15.33
2023-01-22T18:25:57.958Z,18.37
2023-01-22T18:28:26.736Z,17.63
2023-01-22T18:30:54.448Z,15.83
2023-01-22T18:33:22.231Z,18.20
2023-01-22T18:35:53.345Z,17.03
2023-01-22T18:38:25.092Z,18.23
2023-01-22T18:40:53.566Z,21.07
2023-01-22T18:43:20.571Z,17.23
2023-01-22T18:45:47.425Z,25.17
2023-01-22T18:48:15.962Z,18.37
2023-01-22T18:50:42.872Z,19.17
2023-01-22T18:53:09.925Z,18.73
2023-01-22T18:55:37.021Z,18.73
2023-01-22T18:58:34.283Z,18.10
2023-01-22T19:01:09.142Z,21.37
2023-01-22T19:03:36.406Z,22.23
2023-01-22T19:06:04.488Z,20.10
2023-01-22T19:08:31.507Z,23.13
2023-01-22T19:11:05.342Z,21.83
2023-01-22T19:13:35.596Z,29.83
2023-01-22T19:16:04.505Z,24.80
2023-01-22T19:18:31.635Z,20.10
2023-01-22T19:21:03.921Z,18.77
2023-01-22T19:23:30.748Z,22.63
2023-01-22T19:26:04.981Z,22.90
2023-01-22T19:28:33.314Z,22.00
2023-01-22T19:31:00.293Z,27.67
2023-01-22T19:33:27.934Z,22.33
2023-01-22T19:35:55.089Z,25.43
2023-01-22T19:38:22.406Z,22.00
2023-01-22T19:40:49.280Z,23.43
2023-01-22T19:43:16.319Z,23.03
2023-01-22T19:45:44.562Z,22.90
2023-01-22T19:48:11.450Z,24.90
2023-01-22T19:50:41.188Z,26.40
2023-01-22T19:53:08.280Z,27.43
2023-01-22T19:55:36.426Z,21.40
2023-01-22T19:58:03.410Z,23.17
2023-01-22T20:00:30.466Z,25.00
2023-01-22T20:02:58.886Z,29.20
2023-01-22T20:05:25.782Z,23.00
2023-01-22T20:07:56.618Z,22.57
2023-01-22T20:10:23.739Z,21.87
2023-01-22T20:12:50.755Z,24.93
2023-01-22T20:15:18.275Z,23.83
2023-01-22T20:17:45.315Z,26.53
2023-01-22T20:20:14.181Z,26.67
2023-01-22T20:22:41.136Z,29.73
2023-01-22T20:25:09.131Z,30.00
2023-01-22T20:27:36.510Z,26.63
2023-01-22T20:30:03.900Z,33.53
2023-01-22T20:32:30.936Z,33.07
2023-01-22T20:34:57.956Z,23.00
2023-01-22T20:37:27.056Z,24.57
2023-01-22T20:39:54.027Z,27.97
2023-01-22T20:42:20.900Z,23.50
2023-01-22T20:44:48.056Z,25.33
2023-01-22T20:47:14.941Z,26.37
2023-01-22T20:49:41.925Z,35.93
2023-01-22T20:52:08.889Z,29.80
2023-01-22T20:54:50.024Z,28.57
2023-01-22T20:57:24.068Z,30.73
2023-01-22T20:59:50.999Z,30.73
2023-01-22T21:02:18.046Z,36.60
2023-01-22T21:04:45.173Z,32.93
2023-01-22T21:07:12.084Z,33.10
2023-01-22T21:09:41.058Z,29.30
2023-01-22T21:12:08.058Z,28.17
2023-01-22T21:14:35.193Z,32.47
2023-01-22T21:17:02.082Z,32.87
2023-01-22T21:19:29.485Z,34.93
2023-01-22T21:21:57.438Z,35.73
2023-01-22T21:24:24.880Z,33.63
2023-01-22T21:26:53.603Z,37.37
2023-01-22T21:29:22.482Z,25.23
2023-01-22T21:31:52.408Z,27.90
2023-01-22T21:34:21.320Z,31.43
2023-01-22T21:36:49.563Z,29.83
2023-01-22T21:39:18.728Z,27.13
2023-01-22T21:41:46.389Z,26.00
2023-01-22T21:44:35.971Z,28.40
2023-01-22T21:47:03.259Z,28.73
2023-01-22T21:49:30.746Z,26.90
2023-01-22T21:51:59.520Z,28.37
2023-01-22T21:54:28.116Z,31.27
2023-01-22T21:56:56.529Z,38.20
2023-01-22T21:59:25.009Z,28.97
2023-01-22T22:01:54.595Z,31.63
2023-01-22T22:04:22.950Z,29.63
2023-01-22T22:06:49.852Z,28.43
2023-01-22T22:09:21.951Z,27.03
2023-01-22T22:11:49.028Z,28.53
2023-01-22T22:14:18.099Z,27.13
2023-01-22T22:16:47.265Z,28.93
2023-01-22T22:19:15.425Z,30.80
2023-01-22T22:21:42.481Z,30.23
2023-01-22T22:24:09.643Z,29.50
2023-01-22T22:26:36.600Z,31.10
2023-01-22T22:29:04.268Z,26.57
2023-01-22T22:31:31.185Z,27.40
2023-01-22T22:33:59.455Z,28.93
2023-01-22T22:36:27.964Z,27.30
2023-01-22T22:38:55.513Z,23.43
2023-01-22T22:41:24.001Z,26.93
2023-01-22T22:43:52.710Z,24.80
2023-01-22T22:46:21.041Z,29.83
2023-01-22T22:48:48.758Z,29.07
2023-01-22T22:51:19.070Z,29.17
2023-01-22T22:53:47.017Z,34.53
2023-01-22T22:56:14.542Z,26.27
2023-01-22T22:58:41.385Z,26.80
2023-01-22T23:01:08.964Z,22.80
2023-01-22T23:03:37.525Z,26.70
2023-01-22T23:06:08.565Z,26.00
2023-01-22T23:08:38.043Z,27.77
2023-01-22T23:11:06.003Z,26.63
2023-01-22T23:13:33.635Z,27.67
2023-01-22T23:16:01.284Z,25.53
2023-01-22T23:18:28.931Z,27.27
2023-01-22T23:20:56.082Z,27.07
2023-01-22T23:23:22.957Z,32.93
2023-01-22T23:25:51.328Z,24.27
2023-01-22T23:28:18.206Z,26.83
2023-01-22T23:30:45.192Z,25.10
2023-01-22T23:33:12.056Z,26.40
2023-01-22T23:35:38.985Z,30.83
2023-01-22T23:38:05.876Z,25.83
2023-01-22T23:40:34.190Z,27.47
2023-01-22T23:43:03.488Z,26.97
2023-01-22T23:45:30.381Z,22.73
2023-01-22T23:47:57.491Z,28.17
2023-01-22T23:50:24.331Z,25.53
2023-01-22T23:52:51.236Z,22.60
2023-01-22T23:55:18.190Z,27.80
2023-01-22T23:57:45.068Z,32.77
